sensor_id;sensor_type;location;lat;lon;timestamp;pressure;altitude;pressure_sealevel;temperature;humidity
41800;BME280;27468;47.460;19.034;2023-07-20T00:01:12;99670.38;;;23.74;64.47
41800;BME280;27468;47.460;19.034;2023-07-20T00:03:38;99632.28;;;23.37;64.64
41800;BME280;27468;47.460;19.034;2023-07-20T00:06:04;99644.72;;;23.49;64.27
41800;BME280;27468;47.460;19.034;2023-07-20T00:08:29;99692.59;;;23.66;64.43
41800;BME280;27468;47.460;19.034;2023-07-20T00:10:55;99685.31;;;23.57;64.89
41800;BME280;27468;47.460;19.034;2023-07-20T00:13:20;99679.81;;;23.48;64.90
41800;BME280;27468;47.460;19.034;2023-07-20T00:15:46;99675.16;;;23.50;64.68
41800;BME280;27468;47.460;19.034;2023-07-20T00:18:12;99647.72;;;23.35;64.75
41800;BME280;27468;47.460;19.034;2023-07-20T00:20:38;99677.84;;;23.50;64.62
41800;BME280;27468;47.460;19.034;2023-07-20T00:23:03;99623.94;;;23.19;65.37
41800;BME280;27468;47.460;19.034;2023-07-20T00:25:29;99679.00;;;23.36;65.95
41800;BME280;27468;47.460;19.034;2023-07-20T00:27:54;99676.09;;;23.28;66.42
41800;BME280;27468;47.460;19.034;2023-07-20T00:30:20;99668.88;;;23.28;66.11
41800;BME280;27468;47.460;19.034;2023-07-20T00:32:45;99647.78;;;23.13;65.74
41800;BME280;27468;47.460;19.034;2023-07-20T00:35:11;99692.84;;;23.31;65.92
41800;BME280;27468;47.460;19.034;2023-07-20T00:37:38;99689.06;;;23.23;66.28
41800;BME280;27468;47.460;19.034;2023-07-20T00:40:04;99640.69;;;22.91;66.58
41800;BME280;27468;47.460;19.034;2023-07-20T00:42:31;99643.00;;;22.84;67.11
41800;BME280;27468;47.460;19.034;2023-07-20T00:44:56;99640.94;;;22.88;66.66
41800;BME280;27468;47.460;19.034;2023-07-20T00:47:22;99671.91;;;23.03;66.74
41800;BME280;27468;47.460;19.034;2023-07-20T00:49:48;99650.44;;;22.92;66.97
41800;BME280;27468;47.460;19.034;2023-07-20T00:52:13;99672.91;;;23.02;67.36
41800;BME280;27468;47.460;19.034;2023-07-20T00:54:40;99658.38;;;22.93;67.85
41800;BME280;27468;47.460;19.034;2023-07-20T00:57:07;99676.69;;;22.99;67.54
41800;BME280;27468;47.460;19.034;2023-07-20T00:59:33;99603.66;;;22.72;67.42
41800;BME280;27468;47.460;19.034;2023-07-20T01:01:59;99658.59;;;23.01;67.57
41800;BME280;27468;47.460;19.034;2023-07-20T01:04:24;99657.88;;;22.99;67.47
41800;BME280;27468;47.460;19.034;2023-07-20T01:06:58;99616.50;;;22.80;67.92
41800;BME280;27468;47.460;19.034;2023-07-20T01:09:32;99653.97;;;23.03;68.37
41800;BME280;27468;47.460;19.034;2023-07-20T01:12:07;99648.47;;;23.05;68.48
41800;BME280;27468;47.460;19.034;2023-07-20T01:14:34;99636.38;;;22.99;68.43
41800;BME280;27468;47.460;19.034;2023-07-20T01:17:00;99631.47;;;23.04;68.29
41800;BME280;27468;47.460;19.034;2023-07-20T01:19:25;99634.16;;;23.04;68.31
41800;BME280;27468;47.460;19.034;2023-07-20T01:21:59;99597.78;;;22.78;68.42
41800;BME280;27468;47.460;19.034;2023-07-20T01:30:25;99590.38;;;22.82;68.05
41800;BME280;27468;47.460;19.034;2023-07-20T01:32:55;99637.69;;;23.05;68.28
41800;BME280;27468;47.460;19.034;2023-07-20T01:35:28;99635.00;;;23.05;68.14
41800;BME280;27468;47.460;19.034;2023-07-20T01:37:54;99640.50;;;23.03;68.67
41800;BME280;27468;47.460;19.034;2023-07-20T01:40:21;99648.59;;;23.03;68.42
41800;BME280;27468;47.460;19.034;2023-07-20T01:42:48;99606.09;;;22.75;68.37
41800;BME280;27468;47.460;19.034;2023-07-20T01:45:14;99610.28;;;22.79;68.59
41800;BME280;27468;47.460;19.034;2023-07-20T01:47:39;99635.28;;;22.91;68.76
41800;BME280;27468;47.460;19.034;2023-07-20T01:50:06;99641.41;;;22.93;68.58
41800;BME280;27468;47.460;19.034;2023-07-20T01:52:31;99669.13;;;22.93;69.39
41800;BME280;27468;47.460;19.034;2023-07-20T01:54:57;99643.25;;;22.70;69.84
41800;BME280;27468;47.460;19.034;2023-07-20T01:57:22;99625.19;;;22.61;69.60
41800;BME280;27468;47.460;19.034;2023-07-20T01:59:48;99678.91;;;22.94;69.29
41800;BME280;27468;47.460;19.034;2023-07-20T02:02:13;99662.06;;;22.92;68.92
41800;BME280;27468;47.460;19.034;2023-07-20T02:04:38;99638.22;;;22.77;68.95
41800;BME280;27468;47.460;19.034;2023-07-20T02:07:04;99680.25;;;22.89;69.15
41800;BME280;27468;47.460;19.034;2023-07-20T02:09:29;99653.28;;;22.79;68.76
41800;BME280;27468;47.460;19.034;2023-07-20T02:11:55;99683.06;;;22.98;68.91
41800;BME280;27468;47.460;19.034;2023-07-20T02:14:20;99644.09;;;22.70;69.05
41800;BME280;27468;47.460;19.034;2023-07-20T02:16:48;99680.00;;;22.92;69.06
41800;BME280;27468;47.460;19.034;2023-07-20T02:19:16;99687.94;;;22.93;69.21
41800;BME280;27468;47.460;19.034;2023-07-20T02:21:42;99677.44;;;22.90;69.12
41800;BME280;27468;47.460;19.034;2023-07-20T02:24:07;99663.19;;;22.79;69.03
41800;BME280;27468;47.460;19.034;2023-07-20T02:26:33;99632.75;;;22.67;69.04
41800;BME280;27468;47.460;19.034;2023-07-20T02:28:58;99633.25;;;22.61;69.33
41800;BME280;27468;47.460;19.034;2023-07-20T02:31:23;99687.34;;;22.90;69.26
41800;BME280;27468;47.460;19.034;2023-07-20T02:33:49;99682.34;;;22.85;69.29
41800;BME280;27468;47.460;19.034;2023-07-20T02:36:14;99683.44;;;22.83;69.99
41800;BME280;27468;47.460;19.034;2023-07-20T02:38:42;99644.63;;;22.53;69.89
41800;BME280;27468;47.460;19.034;2023-07-20T02:41:07;99694.94;;;22.85;69.98
41800;BME280;27468;47.460;19.034;2023-07-20T02:43:32;99682.72;;;22.81;69.79
41800;BME280;27468;47.460;19.034;2023-07-20T02:45:58;99688.31;;;22.78;69.96
41800;BME280;27468;47.460;19.034;2023-07-20T02:48:23;99627.91;;;22.50;69.79
41800;BME280;27468;47.460;19.034;2023-07-20T02:50:49;99674.88;;;22.78;69.60
41800;BME280;27468;47.460;19.034;2023-07-20T02:53:14;99687.13;;;22.82;69.18
41800;BME280;27468;47.460;19.034;2023-07-20T02:55:39;99677.56;;;22.78;69.03
41800;BME280;27468;47.460;19.034;2023-07-20T02:58:05;99692.38;;;22.83;68.77
41800;BME280;27468;47.460;19.034;2023-07-20T03:00:30;99694.06;;;22.84;68.62
41800;BME280;27468;47.460;19.034;2023-07-20T03:02:56;99698.47;;;22.85;68.55
41800;BME280;27468;47.460;19.034;2023-07-20T03:05:24;99693.81;;;22.76;68.27
41800;BME280;27468;47.460;19.034;2023-07-20T03:07:53;99688.69;;;22.73;68.36
41800;BME280;27468;47.460;19.034;2023-07-20T03:10:18;99679.75;;;22.72;68.16
41800;BME280;27468;47.460;19.034;2023-07-20T03:12:44;99696.75;;;22.73;68.23
41800;BME280;27468;47.460;19.034;2023-07-20T03:15:09;99709.69;;;22.68;68.63
41800;BME280;27468;47.460;19.034;2023-07-20T03:17:35;99707.63;;;22.71;68.38
41800;BME280;27468;47.460;19.034;2023-07-20T03:20:00;99703.72;;;22.64;68.32
41800;BME280;27468;47.460;19.034;2023-07-20T03:22:26;99705.91;;;22.59;68.18
41800;BME280;27468;47.460;19.034;2023-07-20T03:24:52;99720.81;;;22.63;67.99
41800;BME280;27468;47.460;19.034;2023-07-20T03:27:18;99721.53;;;22.65;68.39
41800;BME280;27468;47.460;19.034;2023-07-20T03:29:44;99711.16;;;22.61;68.28
41800;BME280;27468;47.460;19.034;2023-07-20T03:32:09;99714.94;;;22.69;68.19
41800;BME280;27468;47.460;19.034;2023-07-20T03:34:35;99721.66;;;22.64;68.57
41800;BME280;27468;47.460;19.034;2023-07-20T03:37:01;99691.91;;;22.45;68.45
41800;BME280;27468;47.460;19.034;2023-07-20T03:39:27;99726.06;;;22.65;68.64
41800;BME280;27468;47.460;19.034;2023-07-20T03:41:52;99741.44;;;22.63;68.46
41800;BME280;27468;47.460;19.034;2023-07-20T03:44:17;99693.38;;;22.37;68.81
41800;BME280;27468;47.460;19.034;2023-07-20T03:46:43;99739.75;;;22.62;68.79
41800;BME280;27468;47.460;19.034;2023-07-20T03:49:09;99667.09;;;22.19;68.27
41800;BME280;27468;47.460;19.034;2023-07-20T03:51:35;99720.00;;;22.52;68.21
41800;BME280;27468;47.460;19.034;2023-07-20T03:54:01;99743.41;;;22.61;68.43
41800;BME280;27468;47.460;19.034;2023-07-20T03:56:27;99733.28;;;22.64;68.17
41800;BME280;27468;47.460;19.034;2023-07-20T03:58:52;99743.03;;;22.77;67.68
41800;BME280;27468;47.460;19.034;2023-07-20T04:01:18;99737.53;;;22.78;66.49
41800;BME280;27468;47.460;19.034;2023-07-20T04:03:43;99749.28;;;22.88;65.69
41800;BME280;27468;47.460;19.034;2023-07-20T04:06:09;99743.78;;;22.90;64.87
41800;BME280;27468;47.460;19.034;2023-07-20T04:08:36;99748.56;;;22.97;63.23
41800;BME280;27468;47.460;19.034;2023-07-20T04:11:02;99749.41;;;23.09;61.54
41800;BME280;27468;47.460;19.034;2023-07-20T04:13:27;99737.06;;;23.07;60.02
41800;BME280;27468;47.460;19.034;2023-07-20T04:15:53;99724.66;;;23.15;60.44
41800;BME280;27468;47.460;19.034;2023-07-20T04:18:20;99736.00;;;23.30;60.47
41800;BME280;27468;47.460;19.034;2023-07-20T04:20:45;99738.19;;;23.36;59.97
41800;BME280;27468;47.460;19.034;2023-07-20T04:23:11;99724.84;;;23.34;60.47
41800;BME280;27468;47.460;19.034;2023-07-20T04:25:39;99732.63;;;23.49;60.36
41800;BME280;27468;47.460;19.034;2023-07-20T04:28:06;99704.75;;;23.50;60.14
41800;BME280;27468;47.460;19.034;2023-07-20T04:30:34;99716.88;;;23.76;60.02
41800;BME280;27468;47.460;19.034;2023-07-20T04:33:00;99728.63;;;23.96;59.02
41800;BME280;27468;47.460;19.034;2023-07-20T04:38:10;99731.22;;;24.49;57.40
41800;BME280;27468;47.460;19.034;2023-07-20T04:40:35;99683.94;;;24.65;57.16
41800;BME280;27468;47.460;19.034;2023-07-20T04:43:01;99710.31;;;25.12;56.69
41800;BME280;27468;47.460;19.034;2023-07-20T04:45:26;99733.25;;;25.65;55.39
41800;BME280;27468;47.460;19.034;2023-07-20T04:47:51;99731.34;;;26.14;53.06
41800;BME280;27468;47.460;19.034;2023-07-20T04:50:17;99703.94;;;26.56;50.32
41800;BME280;27468;47.460;19.034;2023-07-20T04:52:42;99736.53;;;27.37;47.31
41800;BME280;27468;47.460;19.034;2023-07-20T04:55:08;99734.44;;;27.84;46.48
41800;BME280;27468;47.460;19.034;2023-07-20T04:57:34;99721.63;;;28.12;45.60
41800;BME280;27468;47.460;19.034;2023-07-20T04:59:59;99721.56;;;28.21;43.77
41800;BME280;27468;47.460;19.034;2023-07-20T05:02:25;99699.09;;;28.37;43.04
41800;BME280;27468;47.460;19.034;2023-07-20T05:04:50;99733.13;;;28.91;43.04
41800;BME280;27468;47.460;19.034;2023-07-20T05:07:16;99735.09;;;29.23;42.01
41800;BME280;27468;47.460;19.034;2023-07-20T05:09:41;99738.06;;;29.46;42.02
41800;BME280;27468;47.460;19.034;2023-07-20T05:12:07;99741.84;;;29.78;41.44
41800;BME280;27468;47.460;19.034;2023-07-20T05:14:32;99728.59;;;29.91;40.77
41800;BME280;27468;47.460;19.034;2023-07-20T05:16:58;99725.72;;;29.84;39.94
41800;BME280;27468;47.460;19.034;2023-07-20T05:19:24;99730.63;;;29.97;39.70
41800;BME280;27468;47.460;19.034;2023-07-20T05:21:50;99692.59;;;29.73;39.75
41800;BME280;27468;47.460;19.034;2023-07-20T05:24:15;99743.03;;;30.08;39.05
41800;BME280;27468;47.460;19.034;2023-07-20T05:26:41;99737.28;;;30.03;39.09
41800;BME280;27468;47.460;19.034;2023-07-20T05:29:06;99745.75;;;30.08;38.21
41800;BME280;27468;47.460;19.034;2023-07-20T05:31:31;99730.63;;;29.65;39.45
41800;BME280;27468;47.460;19.034;2023-07-20T05:33:57;99726.47;;;29.28;39.58
41800;BME280;27468;47.460;19.034;2023-07-20T05:36:23;99729.50;;;29.17;39.52
41800;BME280;27468;47.460;19.034;2023-07-20T05:38:49;99737.56;;;29.01;40.20
41800;BME280;27468;47.460;19.034;2023-07-20T05:41:14;99747.47;;;28.76;40.69
41800;BME280;27468;47.460;19.034;2023-07-20T05:43:40;99749.81;;;28.45;41.37
41800;BME280;27468;47.460;19.034;2023-07-20T05:46:07;99757.38;;;28.33;42.08
41800;BME280;27468;47.460;19.034;2023-07-20T05:48:32;99749.91;;;28.09;41.50
41800;BME280;27468;47.460;19.034;2023-07-20T05:50:58;99753.31;;;27.93;42.17
41800;BME280;27468;47.460;19.034;2023-07-20T05:53:23;99742.75;;;27.65;41.17
41800;BME280;27468;47.460;19.034;2023-07-20T05:55:53;99758.75;;;27.58;40.57
41800;BME280;27468;47.460;19.034;2023-07-20T05:58:18;99753.56;;;27.47;41.34
41800;BME280;27468;47.460;19.034;2023-07-20T06:00:44;99749.75;;;27.40;42.08
41800;BME280;27468;47.460;19.034;2023-07-20T06:03:12;99743.16;;;27.24;41.90
41800;BME280;27468;47.460;19.034;2023-07-20T06:05:37;99718.84;;;26.97;41.43
41800;BME280;27468;47.460;19.034;2023-07-20T06:08:03;99715.06;;;26.80;42.12
41800;BME280;27468;47.460;19.034;2023-07-20T06:10:28;99744.53;;;27.11;42.54
41800;BME280;27468;47.460;19.034;2023-07-20T06:12:54;99738.13;;;27.12;42.10
41800;BME280;27468;47.460;19.034;2023-07-20T06:15:28;99729.66;;;26.97;41.97
41800;BME280;27468;47.460;19.034;2023-07-20T06:17:55;99759.28;;;27.16;42.10
41800;BME280;27468;47.460;19.034;2023-07-20T06:20:22;99757.69;;;27.23;41.52
41800;BME280;27468;47.460;19.034;2023-07-20T06:22:47;99767.06;;;27.29;42.49
41800;BME280;27468;47.460;19.034;2023-07-20T06:25:13;99777.03;;;27.28;42.25
41800;BME280;27468;47.460;19.034;2023-07-20T06:27:38;99764.41;;;27.19;40.58
41800;BME280;27468;47.460;19.034;2023-07-20T06:30:04;99767.19;;;27.10;41.30
41800;BME280;27468;47.460;19.034;2023-07-20T06:32:30;99726.41;;;26.84;41.60
41800;BME280;27468;47.460;19.034;2023-07-20T06:34:55;99730.72;;;26.77;41.88
41800;BME280;27468;47.460;19.034;2023-07-20T06:37:20;99752.66;;;26.74;41.19
41800;BME280;27468;47.460;19.034;2023-07-20T06:39:46;99785.19;;;26.91;41.21
41800;BME280;27468;47.460;19.034;2023-07-20T06:42:12;99773.66;;;26.99;41.57
41800;BME280;27468;47.460;19.034;2023-07-20T06:44:37;99784.72;;;27.06;41.13
41800;BME280;27468;47.460;19.034;2023-07-20T06:47:03;99785.88;;;27.03;40.50
41800;BME280;27468;47.460;19.034;2023-07-20T06:49:29;99792.75;;;26.98;41.47
41800;BME280;27468;47.460;19.034;2023-07-20T06:51:54;99788.34;;;26.87;41.63
41800;BME280;27468;47.460;19.034;2023-07-20T06:54:20;99770.59;;;26.75;41.66
41800;BME280;27468;47.460;19.034;2023-07-20T06:56:46;99792.91;;;26.86;41.04
41800;BME280;27468;47.460;19.034;2023-07-20T06:59:11;99810.13;;;26.85;41.68
41800;BME280;27468;47.460;19.034;2023-07-20T07:01:37;99775.84;;;26.76;42.77
41800;BME280;27468;47.460;19.034;2023-07-20T07:04:02;99802.97;;;26.94;41.89
41800;BME280;27468;47.460;19.034;2023-07-20T07:06:28;99817.50;;;26.93;40.98
41800;BME280;27468;47.460;19.034;2023-07-20T07:08:54;99818.25;;;26.85;40.58
41800;BME280;27468;47.460;19.034;2023-07-20T07:11:21;99819.94;;;26.86;40.54
41800;BME280;27468;47.460;19.034;2023-07-20T07:13:46;99825.06;;;26.89;39.78
41800;BME280;27468;47.460;19.034;2023-07-20T07:16:12;99833.88;;;26.91;39.81
41800;BME280;27468;47.460;19.034;2023-07-20T07:18:37;99777.88;;;26.64;39.42
41800;BME280;27468;47.460;19.034;2023-07-20T07:21:05;99818.69;;;26.81;40.13
41800;BME280;27468;47.460;19.034;2023-07-20T07:23:30;99830.06;;;26.84;39.92
41800;BME280;27468;47.460;19.034;2023-07-20T07:25:56;99818.94;;;26.87;40.09
41800;BME280;27468;47.460;19.034;2023-07-20T07:28:21;99822.06;;;26.92;40.10
41800;BME280;27468;47.460;19.034;2023-07-20T07:30:46;99811.13;;;26.84;39.57
41800;BME280;27468;47.460;19.034;2023-07-20T07:33:12;99783.13;;;26.66;39.95
41800;BME280;27468;47.460;19.034;2023-07-20T07:35:38;99824.19;;;26.89;39.95
41800;BME280;27468;47.460;19.034;2023-07-20T07:38:04;99823.38;;;26.79;39.93
41800;BME280;27468;47.460;19.034;2023-07-20T07:40:31;99829.22;;;26.74;40.17
41800;BME280;27468;47.460;19.034;2023-07-20T07:42:57;99836.03;;;26.88;40.37
41800;BME280;27468;47.460;19.034;2023-07-20T07:45:22;99834.47;;;26.85;40.59
41800;BME280;27468;47.460;19.034;2023-07-20T07:47:47;99819.13;;;26.76;40.55
41800;BME280;27468;47.460;19.034;2023-07-20T07:50:13;99806.19;;;26.70;39.95
41800;BME280;27468;47.460;19.034;2023-07-20T07:52:38;99791.25;;;26.66;40.75
41800;BME280;27468;47.460;19.034;2023-07-20T07:55:04;99783.13;;;26.66;40.43
41800;BME280;27468;47.460;19.034;2023-07-20T07:57:30;99788.81;;;26.73;40.65
41800;BME280;27468;47.460;19.034;2023-07-20T07:59:55;99804.56;;;26.87;39.70
41800;BME280;27468;47.460;19.034;2023-07-20T08:02:20;99841.84;;;27.03;39.33
41800;BME280;27468;47.460;19.034;2023-07-20T08:04:46;99799.16;;;26.87;38.98
41800;BME280;27468;47.460;19.034;2023-07-20T08:07:12;99824.56;;;27.13;38.90
41800;BME280;27468;47.460;19.034;2023-07-20T08:09:37;99834.31;;;27.24;38.79
41800;BME280;27468;47.460;19.034;2023-07-20T08:12:03;99826.25;;;27.42;38.73
41800;BME280;27468;47.460;19.034;2023-07-20T08:14:29;99800.69;;;27.26;38.15
41800;BME280;27468;47.460;19.034;2023-07-20T08:16:54;99843.53;;;27.58;37.52
41800;BME280;27468;47.460;19.034;2023-07-20T08:19:20;99834.44;;;27.59;37.76
41800;BME280;27468;47.460;19.034;2023-07-20T08:21:45;99832.44;;;27.61;38.49
41800;BME280;27468;47.460;19.034;2023-07-20T08:24:10;99827.81;;;27.72;38.42
41800;BME280;27468;47.460;19.034;2023-07-20T08:26:36;99819.19;;;27.76;37.81
41800;BME280;27468;47.460;19.034;2023-07-20T08:29:01;99841.56;;;27.96;37.31
41800;BME280;27468;47.460;19.034;2023-07-20T08:31:27;99844.06;;;28.07;36.84
41800;BME280;27468;47.460;19.034;2023-07-20T08:33:53;99835.84;;;28.17;36.46
41800;BME280;27468;47.460;19.034;2023-07-20T08:36:18;99791.41;;;28.10;36.14
41800;BME280;27468;47.460;19.034;2023-07-20T08:38:44;99819.88;;;28.32;35.60
41800;BME280;27468;47.460;19.034;2023-07-20T08:41:09;99797.69;;;28.10;36.15
41800;BME280;27468;47.460;19.034;2023-07-20T08:43:37;99846.75;;;28.43;35.96
41800;BME280;27468;47.460;19.034;2023-07-20T08:46:05;99813.78;;;28.30;35.91
41800;BME280;27468;47.460;19.034;2023-07-20T08:48:30;99832.72;;;28.47;35.20
41800;BME280;27468;47.460;19.034;2023-07-20T08:50:57;99853.69;;;28.63;35.63
41800;BME280;27468;47.460;19.034;2023-07-20T08:53:24;99827.78;;;28.69;35.58
41800;BME280;27468;47.460;19.034;2023-07-20T08:55:52;99829.28;;;28.63;35.10
41800;BME280;27468;47.460;19.034;2023-07-20T08:58:18;99855.13;;;28.75;34.96
41800;BME280;27468;47.460;19.034;2023-07-20T09:00:44;99819.84;;;28.49;34.96
41800;BME280;27468;47.460;19.034;2023-07-20T09:03:14;99847.63;;;28.69;34.67
41800;BME280;27468;47.460;19.034;2023-07-20T09:05:39;99841.13;;;28.62;33.83
41800;BME280;27468;47.460;19.034;2023-07-20T09:08:05;99870.50;;;28.67;33.53
41800;BME280;27468;47.460;19.034;2023-07-20T09:10:31;99868.25;;;28.62;33.05
41800;BME280;27468;47.460;19.034;2023-07-20T09:12:56;99864.31;;;28.56;33.48
41800;BME280;27468;47.460;19.034;2023-07-20T09:15:22;99867.34;;;28.53;33.77
41800;BME280;27468;47.460;19.034;2023-07-20T09:17:49;99861.69;;;28.47;34.07
41800;BME280;27468;47.460;19.034;2023-07-20T09:20:17;99871.06;;;28.52;34.51
41800;BME280;27468;47.460;19.034;2023-07-20T09:22:43;99880.13;;;28.61;34.07
41800;BME280;27468;47.460;19.034;2023-07-20T09:25:16;99875.31;;;28.55;33.99
41800;BME280;27468;47.460;19.034;2023-07-20T09:27:44;99866.25;;;28.64;34.36
41800;BME280;27468;47.460;19.034;2023-07-20T09:30:10;99864.75;;;28.70;33.89
41800;BME280;27468;47.460;19.034;2023-07-20T09:32:48;99862.50;;;28.65;33.83
41800;BME280;27468;47.460;19.034;2023-07-20T09:35:17;99849.22;;;28.54;33.69
41800;BME280;27468;47.460;19.034;2023-07-20T09:37:59;99873.59;;;28.72;34.17
41800;BME280;27468;47.460;19.034;2023-07-20T09:40:25;99867.38;;;28.79;33.56
41800;BME280;27468;47.460;19.034;2023-07-20T09:42:52;99861.78;;;28.81;34.42
41800;BME280;27468;47.460;19.034;2023-07-20T09:45:19;99845.50;;;28.81;33.68
41800;BME280;27468;47.460;19.034;2023-07-20T09:47:44;99871.19;;;28.86;33.80
41800;BME280;27468;47.460;19.034;2023-07-20T09:50:10;99877.16;;;28.98;33.57
41800;BME280;27468;47.460;19.034;2023-07-20T09:52:41;99833.34;;;28.85;33.32
41800;BME280;27468;47.460;19.034;2023-07-20T09:55:08;99818.94;;;28.84;33.29
41800;BME280;27468;47.460;19.034;2023-07-20T09:57:34;99854.38;;;29.17;33.88
41800;BME280;27468;47.460;19.034;2023-07-20T10:00:04;99855.41;;;29.24;33.26
41800;BME280;27468;47.460;19.034;2023-07-20T10:02:36;99825.44;;;29.00;32.75
41800;BME280;27468;47.460;19.034;2023-07-20T10:05:07;99861.97;;;29.13;32.75
41800;BME280;27468;47.460;19.034;2023-07-20T10:07:36;99874.53;;;29.14;33.30
41800;BME280;27468;47.460;19.034;2023-07-20T10:10:06;99872.53;;;29.16;33.35
41800;BME280;27468;47.460;19.034;2023-07-20T10:12:32;99886.63;;;29.20;33.81
41800;BME280;27468;47.460;19.034;2023-07-20T10:15:24;99882.63;;;29.32;32.92
41800;BME280;27468;47.460;19.034;2023-07-20T10:18:03;99884.00;;;29.36;33.16
41800;BME280;27468;47.460;19.034;2023-07-20T10:20:33;99857.34;;;29.40;32.63
41800;BME280;27468;47.460;19.034;2023-07-20T10:23:00;99857.75;;;29.53;32.77
41800;BME280;27468;47.460;19.034;2023-07-20T10:25:26;99895.00;;;29.69;33.05
41800;BME280;27468;47.460;19.034;2023-07-20T10:27:51;99883.25;;;29.60;33.31
41800;BME280;27468;47.460;19.034;2023-07-20T10:30:18;99859.94;;;29.41;33.97
41800;BME280;27468;47.460;19.034;2023-07-20T10:32:45;99889.53;;;29.61;33.50
41800;BME280;27468;47.460;19.034;2023-07-20T10:35:15;99872.06;;;29.71;34.06
41800;BME280;27468;47.460;19.034;2023-07-20T10:38:13;99890.97;;;29.89;33.14
41800;BME280;27468;47.460;19.034;2023-07-20T10:40:39;99886.41;;;29.98;33.06
41800;BME280;27468;47.460;19.034;2023-07-20T10:43:05;99863.13;;;29.95;32.92
41800;BME280;27468;47.460;19.034;2023-07-20T10:48:13;99886.31;;;30.32;32.81
41800;BME280;27468;47.460;19.034;2023-07-20T10:50:40;99876.28;;;30.32;32.54
41800;BME280;27468;47.460;19.034;2023-07-20T10:53:13;99877.97;;;30.41;32.73
41800;BME280;27468;47.460;19.034;2023-07-20T10:55:40;99825.78;;;30.13;32.93
41800;BME280;27468;47.460;19.034;2023-07-20T10:58:15;99863.53;;;30.49;33.06
41800;BME280;27468;47.460;19.034;2023-07-20T11:00:56;99874.75;;;30.54;33.19
41800;BME280;27468;47.460;19.034;2023-07-20T11:03:33;99841.78;;;30.57;32.53
41800;BME280;27468;47.460;19.034;2023-07-20T11:05:58;99878.63;;;30.92;31.89
41800;BME280;27468;47.460;19.034;2023-07-20T11:11:26;99873.38;;;30.66;30.95
41800;BME280;27468;47.460;19.034;2023-07-20T11:13:58;99873.72;;;30.71;31.46
41800;BME280;27468;47.460;19.034;2023-07-20T11:16:42;99844.16;;;30.36;30.93
41800;BME280;27468;47.460;19.034;2023-07-20T11:19:25;99874.75;;;30.46;31.34
41800;BME280;27468;47.460;19.034;2023-07-20T11:21:55;99863.53;;;30.49;31.31
41800;BME280;27468;47.460;19.034;2023-07-20T11:24:21;99872.03;;;30.46;31.18
41800;BME280;27468;47.460;19.034;2023-07-20T11:26:49;99836.66;;;30.13;31.48
41800;BME280;27468;47.460;19.034;2023-07-20T11:29:17;99873.22;;;30.19;31.07
41800;BME280;27468;47.460;19.034;2023-07-20T11:31:44;99832.53;;;29.85;31.49
41800;BME280;27468;47.460;19.034;2023-07-20T11:34:20;99824.53;;;29.75;31.91
41800;BME280;27468;47.460;19.034;2023-07-20T11:36:49;99860.59;;;29.94;30.73
41800;BME280;27468;47.460;19.034;2023-07-20T11:39:24;99861.56;;;29.76;31.62
41800;BME280;27468;47.460;19.034;2023-07-20T11:41:57;99881.47;;;29.93;30.78
41800;BME280;27468;47.460;19.034;2023-07-20T11:44:25;99843.34;;;29.61;30.97
41800;BME280;27468;47.460;19.034;2023-07-20T11:47:12;99879.72;;;29.76;31.00
41800;BME280;27468;47.460;19.034;2023-07-20T11:49:44;99877.47;;;29.63;31.08
41800;BME280;27468;47.460;19.034;2023-07-20T11:52:16;99873.22;;;29.61;31.31
41800;BME280;27468;47.460;19.034;2023-07-20T11:54:42;99824.53;;;29.25;31.01
41800;BME280;27468;47.460;19.034;2023-07-20T11:57:20;99870.47;;;29.44;31.20
41800;BME280;27468;47.460;19.034;2023-07-20T11:59:56;99849.38;;;29.38;31.27
41800;BME280;27468;47.460;19.034;2023-07-20T12:02:29;99868.09;;;29.41;31.45
41800;BME280;27468;47.460;19.034;2023-07-20T12:04:56;99843.25;;;29.36;31.36
41800;BME280;27468;47.460;19.034;2023-07-20T12:07:22;99869.28;;;29.47;31.54
41800;BME280;27468;47.460;19.034;2023-07-20T12:10:12;99859.22;;;29.39;31.52
41800;BME280;27468;47.460;19.034;2023-07-20T12:12:38;99813.94;;;29.06;31.88
41800;BME280;27468;47.460;19.034;2023-07-20T12:17:45;99800.69;;;29.03;31.15
41800;BME280;27468;47.460;19.034;2023-07-20T12:20:12;99805.66;;;29.15;30.98
41800;BME280;27468;47.460;19.034;2023-07-20T12:22:43;99816.41;;;29.25;31.33
41800;BME280;27468;47.460;19.034;2023-07-20T12:25:09;99848.69;;;29.36;31.27
41800;BME280;27468;47.460;19.034;2023-07-20T12:27:37;99857.00;;;29.35;31.47
41800;BME280;27468;47.460;19.034;2023-07-20T12:30:05;99850.03;;;29.32;31.47
41800;BME280;27468;47.460;19.034;2023-07-20T12:32:31;99841.88;;;29.32;32.01
41800;BME280;27468;47.460;19.034;2023-07-20T12:34:56;99797.81;;;29.04;32.17
41800;BME280;27468;47.460;19.034;2023-07-20T12:37:22;99837.31;;;29.33;31.55
41800;BME280;27468;47.460;19.034;2023-07-20T12:39:47;99855.28;;;29.34;32.03
41800;BME280;27468;47.460;19.034;2023-07-20T12:42:13;99834.38;;;29.26;31.29
41800;BME280;27468;47.460;19.034;2023-07-20T12:44:40;99847.31;;;29.32;30.59
41800;BME280;27468;47.460;19.034;2023-07-20T12:47:05;99848.13;;;29.24;29.80
41800;BME280;27468;47.460;19.034;2023-07-20T12:49:31;99843.88;;;29.22;29.95
41800;BME280;27468;47.460;19.034;2023-07-20T12:51:56;99837.59;;;29.21;29.93
41800;BME280;27468;47.460;19.034;2023-07-20T12:54:22;99841.84;;;29.24;30.26
41800;BME280;27468;47.460;19.034;2023-07-20T12:56:47;99837.94;;;29.27;29.95
41800;BME280;27468;47.460;19.034;2023-07-20T12:59:12;99790.50;;;29.05;30.02
41800;BME280;27468;47.460;19.034;2023-07-20T13:01:38;99828.78;;;29.28;29.83
41800;BME280;27468;47.460;19.034;2023-07-20T13:04:06;99833.38;;;29.27;29.08
41800;BME280;27468;47.460;19.034;2023-07-20T13:06:34;99851.03;;;29.31;29.53